Time;durP1;ratioP1;P1;durP2;ratioP2;P2;SDS_P1;SDS_P2;PMS_P1;PMS_P2;Temp;Humidity;BMP_temperature;BMP_pressure;BME280_temperature;BME280_humidity;BME280_pressure;Samples;Min_cycle;Max_cycle;Signal;HPM_P1;HPM_P2
2022/03/16 00:01:18;;;;;;;2.22;1.30;;;20.50;99.90;;;;;;5063188;28;20239;-80
2022/03/16 00:03:49;;;;;;;3.58;1.58;;;20.50;99.90;;;;;;5059830;28;20225;-80
2022/03/16 00:06:19;;;;;;;2.13;1.30;;;20.60;99.90;;;;;;5061144;28;20201;-80
2022/03/16 00:08:50;;;;;;;4.45;1.30;;;20.70;99.90;;;;;;5063676;28;20216;-81
2022/03/16 00:11:21;;;;;;;3.33;1.30;;;20.70;99.90;;;;;;5060246;28;20255;-81
2022/03/16 00:13:51;;;;;;;3.35;1.20;;;20.60;99.90;;;;;;5059098;28;20265;-80
2022/03/16 00:16:24;;;;;;;2.75;1.10;;;20.70;99.90;;;;;;5055749;28;20185;-80
2022/03/16 00:18:54;;;;;;;4.22;1.40;;;20.70;99.90;;;;;;5054477;28;20618;-81
2022/03/16 00:21:25;;;;;;;4.10;1.35;;;20.80;99.90;;;;;;5062325;28;20182;-81
2022/03/16 00:23:56;;;;;;;3.33;1.10;;;21.00;99.90;;;;;;5057387;28;20186;-81
2022/03/16 00:26:27;;;;;;;4.88;1.00;;;21.00;99.90;;;;;;5054489;28;20186;-81
2022/03/16 00:28:58;;;;;;;3.88;0.93;;;21.10;99.90;;;;;;5067770;28;20216;-81
2022/03/16 00:31:30;;;;;;;3.92;1.23;;;21.10;99.90;;;;;;5071350;28;20189;-81
2022/03/16 00:34:02;;;;;;;2.72;0.82;;;21.10;99.90;;;;;;5059721;28;20190;-81
2022/03/16 00:36:33;;;;;;;3.25;1.10;;;21.10;99.90;;;;;;5064317;28;20185;-81
2022/03/16 00:39:03;;;;;;;2.00;0.82;;;21.10;99.90;;;;;;5055932;28;20194;-79
2022/03/16 00:41:35;;;;;;;18.83;2.78;;;21.30;99.90;;;;;;5060906;28;20197;-80
2022/03/16 00:44:06;;;;;;;8.98;1.33;;;21.40;99.90;;;;;;5058605;28;20193;-80
2022/03/16 00:46:39;;;;;;;4.20;0.90;;;21.50;99.90;;;;;;5053759;28;20205;-79
2022/03/16 00:49:09;;;;;;;3.22;0.90;;;21.40;99.90;;;;;;5053881;28;20225;-81
2022/03/16 00:51:41;;;;;;;4.97;0.90;;;21.50;99.90;;;;;;5066961;28;20278;-80
2022/03/16 00:54:11;;;;;;;2.90;1.00;;;21.50;99.90;;;;;;5061589;28;20251;-81
2022/03/16 00:56:42;;;;;;;4.38;0.80;;;21.60;99.90;;;;;;5062514;28;20244;-81
2022/03/16 00:59:12;;;;;;;3.17;0.90;;;21.70;99.90;;;;;;5063124;28;20201;-81
2022/03/16 01:01:45;;;;;;;4.72;1.08;;;21.80;99.90;;;;;;5061407;28;20201;-80
2022/03/16 01:04:16;;;;;;;6.63;0.80;;;21.80;99.90;;;;;;5064730;28;20277;-79
2022/03/16 01:06:46;;;;;;;8.10;0.90;;;21.90;99.90;;;;;;5062662;28;20192;-79
2022/03/16 01:09:17;;;;;;;3.95;0.70;;;22.00;99.90;;;;;;5063671;28;20240;-79
2022/03/16 01:11:47;;;;;;;4.57;1.00;;;22.00;99.90;;;;;;5061306;28;20239;-80
2022/03/16 01:14:18;;;;;;;5.88;1.10;;;22.00;99.90;;;;;;5063693;28;20252;-80
2022/03/16 01:16:51;;;;;;;9.30;2.58;;;22.00;99.90;;;;;;5054190;28;20185;-80
2022/03/16 01:19:21;;;;;;;9.77;1.20;;;22.00;99.90;;;;;;5065244;28;20235;-80
2022/03/16 01:21:53;;;;;;;3.78;1.10;;;22.10;99.90;;;;;;5060278;28;20193;-79
2022/03/16 01:24:24;;;;;;;6.07;1.00;;;22.20;99.90;;;;;;5055338;28;20189;-79
2022/03/16 01:26:54;;;;;;;7.18;0.90;;;22.30;99.90;;;;;;5053832;28;20186;-80
2022/03/16 01:29:26;;;;;;;3.65;1.10;;;22.40;99.90;;;;;;5060534;28;20696;-79
2022/03/16 01:31:58;;;;;;;5.15;1.40;;;22.50;99.90;;;;;;5053224;28;20182;-79
2022/03/16 01:34:29;;;;;;;4.85;1.00;;;22.60;99.90;;;;;;5061300;28;20703;-79
2022/03/16 01:37:00;;;;;;;7.28;1.23;;;22.60;99.90;;;;;;5053437;28;20205;-78
2022/03/16 01:39:30;;;;;;;6.75;1.40;;;22.70;99.90;;;;;;5052897;28;20208;-79
2022/03/16 01:42:01;;;;;;;4.80;1.17;;;22.90;99.90;;;;;;5062894;28;20346;-79
2022/03/16 01:44:59;;;;;;;4.82;1.05;;;23.10;99.90;;;;;;5065149;28;20188;-83
2022/03/16 01:47:31;;;;;;;7.25;1.20;;;23.40;99.90;;;;;;5035427;28;20288;-83
2022/03/16 01:50:02;;;;;;;5.80;1.40;;;23.60;99.90;;;;;;5064446;28;20193;-79
2022/03/16 01:52:33;;;;;;;6.35;1.13;;;23.60;99.90;;;;;;5060298;28;20229;-81
2022/03/16 01:55:05;;;;;;;4.65;1.27;;;23.70;99.90;;;;;;5055065;28;20253;-80
2022/03/16 01:57:37;;;;;;;6.68;1.25;;;24.00;99.90;;;;;;5052977;28;20282;-83
2022/03/16 02:00:09;;;;;;;9.73;1.30;;;24.10;99.90;;;;;;5053800;28;20193;-77
2022/03/16 02:02:41;;;;;;;4.22;1.10;;;24.00;99.90;;;;;;5061264;28;20189;-84
2022/03/16 02:05:12;;;;;;;9.35;1.48;;;23.70;99.90;;;;;;5063740;28;20193;-84
2022/03/16 02:07:45;;;;;;;6.13;1.20;;;23.60;99.90;;;;;;5058000;28;20189;-77
2022/03/16 02:10:16;;;;;;;6.10;1.42;;;23.40;99.90;;;;;;5058749;28;20208;-77
2022/03/16 02:12:49;;;;;;;7.45;1.30;;;23.40;99.90;;;;;;5057677;28;20186;-76
2022/03/16 02:15:19;;;;;;;6.88;1.20;;;23.30;99.90;;;;;;5056608;28;20194;-78
2022/03/16 02:17:54;;;;;;;6.72;1.08;;;23.10;99.90;;;;;;5061554;28;20650;-81
2022/03/16 02:20:27;;;;;;;5.47;1.10;;;23.00;99.90;;;;;;5060489;28;20760;-86
2022/03/16 02:23:01;;;;;;;7.65;1.10;;;22.90;99.90;;;;;;5061295;28;20190;-87
2022/03/16 02:25:33;;;;;;;8.65;1.33;;;22.90;99.90;;;;;;5059965;28;20208;-89
2022/03/16 02:28:04;;;;;;;5.25;1.40;;;22.90;99.90;;;;;;5060585;28;20699;-85
2022/03/16 02:30:34;;;;;;;5.43;1.02;;;22.90;99.90;;;;;;5057461;28;20197;-84
2022/03/16 02:33:05;;;;;;;5.65;1.42;;;22.90;99.90;;;;;;5056860;28;20256;-89
2022/03/16 02:35:36;;;;;;;4.18;1.10;;;23.00;99.90;;;;;;5057097;28;20243;-86
2022/03/16 02:38:09;;;;;;;3.78;0.90;;;23.10;99.90;;;;;;5059318;28;20190;-83
2022/03/16 02:40:40;;;;;;;4.93;1.25;;;23.20;99.90;;;;;;5062235;28;20197;-77
2022/03/16 02:43:10;;;;;;;7.55;1.00;;;23.40;99.90;;;;;;5061556;28;20212;-77
2022/03/16 02:45:41;;;;;;;4.90;1.10;;;23.60;99.90;;;;;;5069489;28;20196;-79
2022/03/16 02:48:11;;;;;;;6.50;1.15;;;23.70;99.90;;;;;;5074829;28;20289;-76
2022/03/16 02:50:42;;;;;;;7.88;1.20;;;23.80;99.90;;;;;;5055546;28;20200;-76
2022/03/16 02:53:15;;;;;;;8.77;1.45;;;23.80;99.90;;;;;;5055279;28;20225;-77
2022/03/16 02:55:46;;;;;;;4.95;0.93;;;24.00;99.90;;;;;;5058229;28;20189;-76
2022/03/16 02:58:17;;;;;;;8.38;1.10;;;24.00;99.90;;;;;;5057682;28;20280;-79
2022/03/16 03:00:49;;;;;;;5.35;0.88;;;24.10;99.90;;;;;;5066357;28;20200;-76
2022/03/16 03:03:19;;;;;;;5.25;1.08;;;24.20;99.90;;;;;;5073758;28;20687;-83
2022/03/16 03:05:50;;;;;;;6.82;1.27;;;24.20;99.90;;;;;;5067824;28;20190;-76
2022/03/16 03:08:23;;;;;;;5.15;1.10;;;24.20;99.90;;;;;;5057753;28;20279;-78
2022/03/16 03:10:53;;;;;;;5.38;1.30;;;24.10;99.90;;;;;;5068374;28;20242;-78
2022/03/16 03:13:24;;;;;;;11.18;1.40;;;24.10;99.90;;;;;;5056121;28;20186;-76
2022/03/16 03:15:54;;;;;;;6.03;1.10;;;24.10;99.90;;;;;;5059967;28;20181;-76
2022/03/16 03:18:26;;;;;;;4.80;1.00;;;24.00;99.90;;;;;;5062330;28;20189;-78
2022/03/16 03:20:56;;;;;;;5.93;1.10;;;24.00;99.90;;;;;;5056338;28;20193;-80
2022/03/16 03:23:29;;;;;;;6.63;1.10;;;24.00;99.90;;;;;;5062336;28;20200;-79
2022/03/16 03:25:59;;;;;;;5.88;1.30;;;24.10;99.90;;;;;;5061883;28;20186;-76
2022/03/16 03:28:30;;;;;;;5.38;1.05;;;24.20;99.90;;;;;;5058690;28;20217;-76
2022/03/16 03:31:01;;;;;;;6.97;1.15;;;24.20;99.90;;;;;;5063513;28;20197;-75
2022/03/16 03:33:31;;;;;;;6.93;1.23;;;24.30;99.90;;;;;;5067192;28;20188;-76
2022/03/16 03:36:02;;;;;;;5.28;1.10;;;24.20;99.90;;;;;;5061631;28;20190;-76
2022/03/16 03:38:34;;;;;;;5.13;1.10;;;24.30;99.90;;;;;;5067698;28;20680;-77
2022/03/16 03:41:07;;;;;;;7.22;1.05;;;24.40;99.90;;;;;;5069767;28;20245;-76
2022/03/16 03:43:38;;;;;;;7.60;1.40;;;24.40;99.90;;;;;;5061965;28;20707;-75
2022/03/16 03:46:09;;;;;;;5.50;1.20;;;24.60;99.90;;;;;;5063035;28;20196;-78
2022/03/16 03:48:40;;;;;;;5.03;1.00;;;24.60;99.90;;;;;;5066652;28;20224;-75
2022/03/16 03:51:11;;;;;;;7.10;1.20;;;24.60;99.90;;;;;;5060641;28;20193;-75
2022/03/16 03:53:44;;;;;;;5.63;1.20;;;24.60;99.90;;;;;;5060155;28;20239;-76
2022/03/16 03:56:14;;;;;;;8.00;1.48;;;24.40;99.90;;;;;;5062208;28;20190;-75
2022/03/16 03:58:45;;;;;;;5.90;1.10;;;24.30;99.90;;;;;;5058044;28;20277;-76
2022/03/16 04:01:17;;;;;;;4.85;0.98;;;24.10;99.90;;;;;;5062857;28;20240;-78
2022/03/16 04:03:47;;;;;;;3.78;1.00;;;23.90;99.90;;;;;;5062787;28;20747;-76
2022/03/16 04:06:18;;;;;;;4.88;1.10;;;23.80;99.90;;;;;;5060765;28;20224;-76
2022/03/16 04:08:50;;;;;;;3.65;0.95;;;23.80;99.90;;;;;;5064813;28;20208;-74
2022/03/16 04:11:21;;;;;;;5.65;1.00;;;23.90;99.90;;;;;;5069737;28;20182;-76
2022/03/16 04:13:52;;;;;;;7.05;1.27;;;23.90;99.90;;;;;;5064952;28;20223;-76
2022/03/16 04:16:22;;;;;;;4.13;0.90;;;23.80;99.90;;;;;;5071117;28;20570;-76
2022/03/16 04:18:53;;;;;;;5.68;0.98;;;23.90;99.90;;;;;;5064817;28;20197;-76
2022/03/16 04:21:24;;;;;;;5.88;0.90;;;23.80;99.90;;;;;;5057921;28;20197;-76
2022/03/16 04:23:57;;;;;;;8.63;1.10;;;23.60;99.90;;;;;;5064776;28;20707;-75
2022/03/16 04:26:27;;;;;;;4.90;0.90;;;23.50;99.90;;;;;;5070841;28;20185;-75
2022/03/16 04:28:58;;;;;;;5.78;0.95;;;23.40;99.90;;;;;;5059559;28;20209;-75
2022/03/16 04:31:29;;;;;;;6.15;0.90;;;23.40;99.90;;;;;;5072257;28;20272;-76
2022/03/16 04:33:59;;;;;;;4.03;1.10;;;23.40;99.90;;;;;;5061875;28;20585;-75
2022/03/16 04:36:31;;;;;;;3.92;0.93;;;23.70;99.90;;;;;;5065287;28;20242;-76
2022/03/16 04:39:03;;;;;;;7.63;1.02;;;23.80;99.90;;;;;;5072772;28;20185;-76
2022/03/16 04:41:34;;;;;;;7.13;0.98;;;23.80;99.90;;;;;;5064093;28;20193;-76
2022/03/16 04:44:05;;;;;;;5.68;1.10;;;23.70;99.90;;;;;;5059925;28;20185;-76
2022/03/16 04:46:35;;;;;;;6.15;0.95;;;23.60;99.90;;;;;;5065186;28;20193;-75
2022/03/16 04:49:06;;;;;;;5.63;0.90;;;23.60;99.90;;;;;;5063473;28;20205;-76
2022/03/16 04:51:36;;;;;;;6.35;1.00;;;23.60;99.90;;;;;;5055060;28;20275;-75
2022/03/16 04:54:09;;;;;;;3.70;1.00;;;23.50;99.90;;;;;;5060271;28;20232;-74
2022/03/16 04:56:40;;;;;;;5.35;0.95;;;23.60;99.90;;;;;;5068196;28;20189;-75
2022/03/16 04:59:10;;;;;;;6.53;1.05;;;23.60;99.90;;;;;;5058907;28;20202;-76
2022/03/16 05:01:41;;;;;;;7.85;1.10;;;23.70;99.90;;;;;;5061149;28;20193;-75
2022/03/16 05:04:12;;;;;;;6.22;1.20;;;23.70;99.90;;;;;;5069258;28;20218;-76
2022/03/16 05:06:42;;;;;;;3.70;1.05;;;23.70;99.90;;;;;;5070058;28;20196;-75
2022/03/16 05:09:15;;;;;;;8.18;1.00;;;23.80;99.90;;;;;;5065940;28;20250;-75
2022/03/16 05:11:46;;;;;;;5.47;0.90;;;23.70;99.90;;;;;;5059250;28;20193;-75
2022/03/16 05:14:17;;;;;;;5.85;0.80;;;23.80;99.90;;;;;;5062631;28;20194;-76
2022/03/16 05:16:48;;;;;;;6.85;1.00;;;24.00;99.90;;;;;;5055634;28;20189;-76
2022/03/16 05:19:18;;;;;;;6.30;1.30;;;24.10;99.90;;;;;;5062202;28;20642;-75
2022/03/16 05:21:49;;;;;;;7.90;1.15;;;24.30;99.90;;;;;;5064035;28;20239;-75
2022/03/16 05:24:22;;;;;;;6.72;1.05;;;24.40;99.90;;;;;;5060787;28;20559;-75
2022/03/16 05:26:53;;;;;;;8.93;1.38;;;24.60;99.90;;;;;;5053401;28;20197;-77
2022/03/16 05:29:23;;;;;;;6.38;1.30;;;24.80;99.90;;;;;;5069102;28;20216;-80
2022/03/16 05:31:54;;;;;;;8.40;1.42;;;24.90;99.90;;;;;;5067823;28;20196;-81
2022/03/16 05:34:25;;;;;;;5.47;1.27;;;24.80;99.90;;;;;;5067540;28;20192;-79
2022/03/16 05:36:55;;;;;;;6.95;1.17;;;24.90;99.90;;;;;;5066730;28;20227;-80
2022/03/16 05:39:28;;;;;;;5.22;1.00;;;24.90;99.90;;;;;;5067081;28;20185;-81
2022/03/16 05:42:00;;;;;;;4.95;0.98;;;24.80;99.90;;;;;;5065124;28;20190;-80
2022/03/16 05:44:30;;;;;;;8.48;1.13;;;24.80;99.90;;;;;;5068169;28;20185;-80
2022/03/16 05:47:01;;;;;;;7.38;1.13;;;24.70;99.90;;;;;;5069225;28;20189;-81
2022/03/16 05:49:32;;;;;;;6.35;1.30;;;24.60;99.90;;;;;;5057926;28;20205;-79
2022/03/16 05:52:02;;;;;;;6.57;1.10;;;24.50;99.90;;;;;;5063893;28;20232;-81
2022/03/16 05:54:38;;;;;;;6.07;1.33;;;24.40;99.90;;;;;;5058639;28;20209;-79
2022/03/16 05:57:09;;;;;;;9.95;1.63;;;24.30;99.90;;;;;;5055936;28;20200;-80
2022/03/16 05:59:39;;;;;;;9.00;1.40;;;24.20;99.90;;;;;;5060896;28;20568;-80
2022/03/16 06:02:10;;;;;;;6.53;1.33;;;24.10;99.90;;;;;;5066431;28;20189;-80
2022/03/16 06:04:41;;;;;;;10.07;1.35;;;24.00;99.90;;;;;;5066147;28;20703;-80
2022/03/16 06:07:12;;;;;;;9.65;1.30;;;23.90;99.90;;;;;;5059540;28;20248;-81
2022/03/16 06:09:45;;;;;;;9.23;1.58;;;23.80;99.90;;;;;;5069478;28;20266;-81
2022/03/16 06:12:15;;;;;;;9.52;1.48;;;23.70;99.90;;;;;;5064841;28;20655;-80
2022/03/16 06:14:46;;;;;;;8.70;1.17;;;23.60;99.90;;;;;;5058698;28;20247;-82
2022/03/16 06:17:17;;;;;;;6.85;1.10;;;23.60;99.90;;;;;;5062259;28;20592;-86
2022/03/16 06:19:47;;;;;;;9.60;1.45;;;23.50;99.90;;;;;;5067241;28;20542;-81
2022/03/16 06:22:18;;;;;;;8.15;1.60;;;23.40;99.90;;;;;;5067631;28;20189;-75
2022/03/16 06:24:50;;;;;;;8.93;1.20;;;23.40;99.90;;;;;;5055590;28;20193;-79
2022/03/16 06:27:21;;;;;;;10.50;1.38;;;23.30;99.90;;;;;;5062757;28;20185;-76
2022/03/16 06:29:52;;;;;;;9.77;1.50;;;23.30;99.90;;;;;;5064837;28;20676;-77
2022/03/16 06:32:22;;;;;;;7.03;1.20;;;23.30;99.90;;;;;;5067067;28;20193;-76
2022/03/16 06:34:53;;;;;;;9.27;1.23;;;23.30;99.90;;;;;;5052533;28;20186;-77
2022/03/16 06:37:24;;;;;;;6.80;1.35;;;23.30;99.90;;;;;;5053019;28;20691;-75
2022/03/16 06:39:56;;;;;;;8.43;1.40;;;23.30;99.90;;;;;;5067521;28;20622;-76
2022/03/16 06:42:27;;;;;;;12.07;1.70;;;23.20;99.90;;;;;;5059409;28;20247;-76
2022/03/16 06:44:58;;;;;;;8.05;1.67;;;23.30;99.90;;;;;;5063749;28;20190;-83
2022/03/16 06:47:28;;;;;;;9.00;1.50;;;23.30;99.90;;;;;;5060589;28;20186;-75
2022/03/16 06:49:59;;;;;;;11.73;1.70;;;23.20;99.90;;;;;;5057936;28;20205;-75
2022/03/16 06:52:30;;;;;;;12.02;1.77;;;23.20;99.90;;;;;;5058398;28;20233;-75
2022/03/16 06:55:02;;;;;;;8.55;1.50;;;23.10;99.90;;;;;;5056340;28;20185;-77
2022/03/16 06:57:33;;;;;;;8.48;1.40;;;23.10;99.90;;;;;;5061739;28;20649;-75
2022/03/16 07:00:05;;;;;;;9.13;1.60;;;23.10;99.90;;;;;;5065842;28;20250;-75
2022/03/16 07:02:50;;;;;;;12.43;1.98;;;23.10;99.90;;;;;;5061217;28;20668;-75
2022/03/16 07:05:20;;;;;;;12.77;1.88;;;23.00;99.90;;;;;;5059305;28;20198;-75
2022/03/16 07:07:51;;;;;;;8.80;1.48;;;23.00;99.90;;;;;;5061076;28;20190;-77
2022/03/16 07:10:24;;;;;;;15.63;3.20;;;23.00;99.90;;;;;;5059883;28;20213;-76
2022/03/16 07:12:55;;;;;;;10.27;1.58;;;23.00;99.90;;;;;;5056886;28;20192;-80
2022/03/16 07:15:26;;;;;;;11.05;1.65;;;23.00;99.90;;;;;;5062854;28;20579;-75
2022/03/16 07:17:57;;;;;;;9.90;1.65;;;23.00;99.90;;;;;;5058226;28;20185;-75
2022/03/16 07:20:28;;;;;;;9.10;1.60;;;23.00;99.90;;;;;;5069682;28;20658;-76
2022/03/16 07:23:06;;;;;;;11.95;1.88;;;23.00;99.90;;;;;;5060177;28;20185;-77
2022/03/16 07:25:39;;;;;;;7.00;1.60;;;23.00;99.90;;;;;;5064965;28;20648;-75
2022/03/16 07:28:11;;;;;;;15.55;2.17;;;23.00;99.90;;;;;;5069004;28;20181;-75
2022/03/16 07:30:42;;;;;;;10.98;1.77;;;22.90;99.90;;;;;;5067908;28;20684;-76
2022/03/16 07:33:13;;;;;;;14.55;2.25;;;22.90;99.90;;;;;;5069343;28;20634;-76
2022/03/16 07:35:45;;;;;;;13.80;1.98;;;22.90;99.90;;;;;;5061819;28;20197;-75
2022/03/16 07:38:15;;;;;;;8.68;1.55;;;22.80;99.90;;;;;;5062274;28;20633;-75
2022/03/16 07:40:48;;;;;;;16.30;2.00;;;22.80;99.90;;;;;;5061866;28;20196;-76
2022/03/16 07:43:19;;;;;;;9.38;1.88;;;22.80;99.90;;;;;;5057881;28;20193;-75
2022/03/16 07:45:50;;;;;;;14.05;2.22;;;22.80;99.90;;;;;;5055769;28;20205;-76
2022/03/16 07:48:21;;;;;;;12.63;2.10;;;22.80;99.90;;;;;;5055263;28;20221;-76
2022/03/16 07:50:52;;;;;;;10.27;2.00;;;22.70;99.90;;;;;;5069722;28;20217;-76
2022/03/16 07:53:23;;;;;;;12.50;1.83;;;22.70;99.90;;;;;;5059931;28;20220;-76
2022/03/16 07:55:56;;;;;;;15.50;2.13;;;22.70;99.90;;;;;;5054755;28;20197;-76
2022/03/16 07:58:27;;;;;;;12.05;1.98;;;22.70;99.90;;;;;;5053493;28;20204;-76
2022/03/16 08:00:57;;;;;;;13.73;1.90;;;22.70;99.90;;;;;;5058273;28;20648;-76
2022/03/16 08:03:28;;;;;;;9.43;2.03;;;22.60;99.90;;;;;;5063631;28;20218;-76
2022/03/16 08:05:59;;;;;;;10.95;1.90;;;22.60;99.90;;;;;;5065589;28;20197;-77
2022/03/16 08:08:29;;;;;;;11.15;1.83;;;22.60;99.90;;;;;;5055367;28;20240;-75
2022/03/16 08:11:02;;;;;;;11.65;2.05;;;22.60;99.90;;;;;;5062085;28;20685;-78
2022/03/16 08:13:32;;;;;;;11.20;2.10;;;22.50;99.90;;;;;;5060046;28;20280;-76
2022/03/16 08:16:03;;;;;;;11.23;1.50;;;22.40;99.90;;;;;;5070095;28;20564;-76
2022/03/16 08:18:34;;;;;;;8.75;1.88;;;22.40;99.90;;;;;;5060009;28;20200;-75
2022/03/16 08:21:06;;;;;;;8.55;1.33;;;22.30;99.90;;;;;;5058615;28;20198;-76
2022/03/16 08:23:37;;;;;;;9.18;1.42;;;22.20;99.90;;;;;;5063595;28;20185;-75
2022/03/16 08:26:09;;;;;;;5.35;1.40;;;22.20;99.90;;;;;;5070581;28;20185;-75
2022/03/16 08:28:41;;;;;;;7.50;1.50;;;22.10;99.90;;;;;;5055520;28;20243;-75
2022/03/16 08:31:11;;;;;;;8.23;1.85;;;22.10;99.90;;;;;;5071518;28;20639;-76
2022/03/16 08:33:42;;;;;;;10.02;1.90;;;22.00;99.90;;;;;;5062381;28;20239;-77
2022/03/16 08:36:13;;;;;;;9.60;2.13;;;22.00;99.90;;;;;;5057813;28;20239;-75
2022/03/16 08:38:43;;;;;;;12.07;2.38;;;22.00;99.90;;;;;;5079015;28;20548;-75
2022/03/16 08:41:16;;;;;;;13.75;2.28;;;21.90;99.90;;;;;;5063180;28;20190;-75
2022/03/16 08:43:47;;;;;;;8.73;1.77;;;21.90;99.90;;;;;;5058424;28;20201;-75
2022/03/16 08:46:17;;;;;;;13.50;2.08;;;21.90;99.90;;;;;;5062435;28;20632;-75
2022/03/16 08:48:48;;;;;;;12.55;2.50;;;21.90;99.90;;;;;;5060090;28;20599;-75
2022/03/16 08:51:19;;;;;;;12.20;2.08;;;21.80;99.90;;;;;;5062783;28;20209;-77
2022/03/16 08:53:49;;;;;;;14.75;2.17;;;21.80;99.90;;;;;;5062690;28;20196;-75
2022/03/16 08:56:22;;;;;;;8.68;2.20;;;21.80;99.90;;;;;;5071164;28;20186;-75
2022/03/16 08:58:53;;;;;;;10.70;2.50;;;21.80;99.90;;;;;;5053206;28;20193;-77
2022/03/16 09:01:23;;;;;;;11.23;2.65;;;21.80;99.90;;;;;;5052319;28;20190;-75
2022/03/16 09:03:55;;;;;;;9.40;2.35;;;21.80;99.90;;;;;;5064762;28;20217;-76
2022/03/16 09:06:26;;;;;;;10.80;2.30;;;21.80;99.90;;;;;;5056435;28;20267;-76
2022/03/16 09:08:57;;;;;;;13.93;3.47;;;21.80;99.90;;;;;;5057552;28;20250;-75
2022/03/16 09:11:29;;;;;;;11.38;2.60;;;21.80;99.90;;;;;;5065458;28;20205;-75
2022/03/16 09:14:00;;;;;;;8.75;2.45;;;21.80;99.90;;;;;;5053476;28;20185;-76
2022/03/16 09:16:30;;;;;;;10.25;2.50;;;21.80;99.90;;;;;;5057365;28;20271;-75
2022/03/16 09:19:01;;;;;;;11.25;2.60;;;21.80;99.90;;;;;;5057899;28;20197;-76
2022/03/16 09:21:32;;;;;;;9.88;2.30;;;21.80;99.90;;;;;;5055219;28;20200;-76
2022/03/16 09:24:03;;;;;;;7.63;2.47;;;21.80;99.90;;;;;;5061906;28;20186;-77
2022/03/16 09:26:35;;;;;;;9.02;2.50;;;21.70;99.90;;;;;;5060086;28;20464;-76
2022/03/16 09:29:08;;;;;;;12.25;2.72;;;21.70;99.90;;;;;;5061889;28;20235;-75
2022/03/16 09:31:39;;;;;;;8.52;2.47;;;21.70;99.90;;;;;;5061417;28;20773;-75
2022/03/16 09:34:11;;;;;;;8.32;2.30;;;21.60;99.90;;;;;;5062227;28;20189;-75
2022/03/16 09:36:42;;;;;;;9.80;2.60;;;21.60;99.90;;;;;;5058069;28;20216;-75
2022/03/16 09:39:13;;;;;;;13.73;3.25;;;21.60;99.90;;;;;;5060949;28;20642;-75
2022/03/16 09:41:45;;;;;;;9.30;2.30;;;21.60;99.90;;;;;;5058354;28;20247;-75
2022/03/16 09:44:17;;;;;;;8.02;2.65;;;21.60;99.90;;;;;;5060840;28;20200;-75
2022/03/16 09:46:48;;;;;;;12.30;2.72;;;21.50;99.90;;;;;;5058738;28;20189;-76
2022/03/16 09:49:19;;;;;;;14.25;2.67;;;21.50;99.90;;;;;;5060517;28;20186;-75
2022/03/16 09:51:51;;;;;;;11.15;3.08;;;21.50;99.90;;;;;;5059053;28;20282;-76
2022/03/16 09:54:22;;;;;;;9.65;2.72;;;21.40;99.90;;;;;;5059111;28;20188;-76
2022/03/16 09:56:55;;;;;;;10.38;3.00;;;21.40;99.90;;;;;;5057918;28;20189;-75
2022/03/16 09:59:25;;;;;;;9.02;2.28;;;21.40;99.90;;;;;;5058492;28;20302;-76
2022/03/16 10:02:04;;;;;;;10.98;2.58;;;21.40;99.90;;;;;;5058984;28;20188;-75
2022/03/16 10:04:36;;;;;;;13.25;3.20;;;21.30;99.90;;;;;;5062379;28;20239;-75
2022/03/16 10:07:07;;;;;;;10.30;2.70;;;21.30;99.90;;;;;;5060734;28;20209;-75
2022/03/16 10:15:18;;;;;;;11.73;3.08;;;21.30;99.90;;;;;;5058737;28;20188;-74
2022/03/16 10:17:52;;;;;;;8.13;2.45;;;21.20;99.90;;;;;;5061225;28;20192;-75
2022/03/16 10:20:31;;;;;;;10.85;2.58;;;21.20;99.90;;;;;;5052236;28;20188;-77
2022/03/16 10:23:07;;;;;;;9.68;2.50;;;21.20;99.90;;;;;;5051666;28;20239;-75
2022/03/16 10:25:39;;;;;;;10.27;2.17;;;21.20;99.90;;;;;;5052756;28;20205;-75
2022/03/16 10:28:16;;;;;;;13.05;2.45;;;21.20;99.90;;;;;;5061188;28;20231;-77
2022/03/16 10:30:57;;;;;;;12.77;2.38;;;21.10;99.90;;;;;;5063241;28;20216;-80
2022/03/16 10:33:30;;;;;;;8.60;2.15;;;21.10;99.90;;;;;;5055590;28;20716;-77
2022/03/16 10:36:07;;;;;;;13.13;2.50;;;21.10;99.90;;;;;;5055924;28;20190;-76
2022/03/16 10:38:41;;;;;;;9.45;2.13;;;21.10;99.90;;;;;;5055672;28;20204;-75
2022/03/16 10:46:56;;;;;;;10.77;1.80;;;21.10;99.90;;;;;;5058602;28;20197;-75
2022/03/16 10:49:26;;;;;;;12.20;1.85;;;21.10;99.90;;;;;;5058885;28;20645;-78
2022/03/16 10:52:05;;;;;;;11.68;2.28;;;21.00;99.90;;;;;;5055518;28;20248;-76
2022/03/16 10:54:37;;;;;;;11.95;2.13;;;21.00;99.90;;;;;;5058025;28;20220;-75
2022/03/16 10:57:10;;;;;;;10.13;1.90;;;21.00;99.90;;;;;;5058188;28;20653;-75
2022/03/16 10:59:43;;;;;;;10.15;2.03;;;21.00;99.90;;;;;;5067176;28;20188;-75
2022/03/16 11:02:15;;;;;;;10.45;2.33;;;21.00;99.90;;;;;;5059859;28;20314;-76
2022/03/16 11:04:47;;;;;;;8.82;1.70;;;21.00;99.90;;;;;;5062695;28;20567;-75
2022/03/16 11:07:18;;;;;;;8.38;1.80;;;21.00;99.90;;;;;;5061732;28;20189;-76
2022/03/16 11:09:50;;;;;;;11.90;2.17;;;21.00;99.90;;;;;;5064842;28;20193;-75
2022/03/16 11:15:11;;;;;;;11.25;2.10;;;21.00;99.90;;;;;;5063166;28;20321;-75
2022/03/16 11:17:42;;;;;;;12.40;2.30;;;20.90;99.90;;;;;;5064641;28;20231;-75
2022/03/16 11:20:14;;;;;;;9.82;1.90;;;20.90;99.90;;;;;;5063667;28;20520;-75
2022/03/16 11:25:47;;;;;;;13.43;2.20;;;20.90;99.90;;;;;;5049468;28;20197;-77
2022/03/16 11:28:25;;;;;;;6.47;1.92;;;20.80;99.90;;;;;;5062896;28;20189;-75
2022/03/16 11:31:03;;;;;;;9.85;2.00;;;20.80;99.90;;;;;;5059881;28;20263;-77
2022/03/16 11:33:33;;;;;;;12.10;2.35;;;20.80;99.90;;;;;;5055569;28;20211;-78
2022/03/16 11:36:05;;;;;;;11.18;2.53;;;20.80;99.90;;;;;;5058052;28;20189;-79
2022/03/16 11:38:37;;;;;;;11.02;2.13;;;20.80;99.90;;;;;;5055344;28;20194;-76
2022/03/16 11:41:11;;;;;;;8.43;2.42;;;20.70;99.90;;;;;;5061405;28;20193;-76
2022/03/16 11:43:41;;;;;;;6.93;1.77;;;20.70;99.90;;;;;;5059507;28;20557;-80
2022/03/16 11:46:31;;;;;;;10.10;1.90;;;20.70;99.90;;;;;;5063140;28;20185;-81
2022/03/16 11:49:07;;;;;;;11.20;2.30;;;20.70;99.90;;;;;;5073639;28;20193;-76
2022/03/16 11:51:43;;;;;;;10.15;2.28;;;20.70;99.90;;;;;;5058860;28;20250;-77
2022/03/16 11:54:14;;;;;;;10.50;1.88;;;20.70;99.90;;;;;;5069773;28;20275;-76
2022/03/16 11:56:57;;;;;;;9.50;2.08;;;20.70;99.90;;;;;;5064947;28;20192;-77
2022/03/16 11:59:46;;;;;;;5.93;1.70;;;20.70;99.90;;;;;;5062168;28;20181;-75
2022/03/16 12:02:23;;;;;;;9.13;1.73;;;20.60;99.90;;;;;;5058952;28;20266;-76
2022/03/16 12:05:00;;;;;;;8.38;1.90;;;20.60;99.90;;;;;;5062413;28;20608;-77
2022/03/16 12:07:34;;;;;;;9.00;1.77;;;20.60;99.90;;;;;;5064350;28;20192;-76
2022/03/16 12:10:17;;;;;;;9.20;1.70;;;20.60;99.90;;;;;;5062071;28;20199;-76
2022/03/16 12:12:54;;;;;;;9.40;1.77;;;20.60;99.90;;;;;;5059427;28;20241;-75
2022/03/16 12:15:37;;;;;;;8.90;2.03;;;20.60;99.90;;;;;;5062075;28;20644;-77
2022/03/16 12:18:41;;;;;;;7.50;1.90;;;20.60;99.90;;;;;;5071379;28;20185;-75
2022/03/16 12:21:13;;;;;;;8.18;1.92;;;20.60;99.90;;;;;;5053831;28;20197;-76
2022/03/16 12:28:55;;;;;;;5.93;1.60;;;20.50;99.90;;;;;;5052964;28;20197;-75
2022/03/16 12:29:36;;;;;;;8.38;1.95;;;20.60;99.90;;;;;;5055535;28;20648;-77
2022/03/16 12:32:07;;;;;;;9.35;2.60;;;20.50;99.90;;;;;;5064599;28;20228;-75
2022/03/16 12:34:40;;;;;;;10.70;2.15;;;20.50;99.90;;;;;;5056850;28;20190;-75
2022/03/16 12:37:15;;;;;;;11.32;2.15;;;20.50;99.90;;;;;;5059614;28;20235;-77
2022/03/16 12:39:49;;;;;;;9.20;1.90;;;20.50;99.90;;;;;;5062316;28;20184;-76
2022/03/16 12:42:33;;;;;;;7.15;1.90;;;20.40;99.90;;;;;;5064734;28;20246;-76
2022/03/16 12:45:12;;;;;;;6.95;1.90;;;20.50;99.90;;;;;;5062065;28;20652;-75
2022/03/16 12:47:49;;;;;;;8.05;2.00;;;20.50;99.90;;;;;;5069155;28;20193;-76
2022/03/16 12:50:24;;;;;;;7.97;2.15;;;20.50;99.90;;;;;;5054904;28;20197;-75
2022/03/16 12:52:55;;;;;;;10.95;2.00;;;20.40;99.90;;;;;;5062867;28;20285;-76
2022/03/16 12:55:25;;;;;;;8.82;2.10;;;20.40;99.90;;;;;;5054172;28;20188;-74
2022/03/16 12:57:59;;;;;;;7.82;2.05;;;20.40;99.90;;;;;;5056002;28;20185;-75
2022/03/16 13:00:39;;;;;;;6.53;1.70;;;20.40;99.90;;;;;;5060397;28;20201;-76
2022/03/16 13:03:17;;;;;;;13.20;2.40;;;20.40;99.90;;;;;;5062195;28;20224;-76
2022/03/16 13:05:50;;;;;;;7.20;1.88;;;20.40;99.90;;;;;;5069340;28;20188;-75
2022/03/16 13:08:23;;;;;;;8.25;2.35;;;20.30;99.90;;;;;;5064576;28;20244;-74
2022/03/16 13:11:19;;;;;;;7.60;2.25;;;20.40;99.90;;;;;;5055190;28;20192;-74
2022/03/16 13:14:00;;;;;;;7.65;2.33;;;20.40;99.90;;;;;;5057567;28;20330;-74
2022/03/16 13:16:36;;;;;;;6.70;2.10;;;20.30;99.90;;;;;;5054769;28;20239;-74
2022/03/16 13:19:08;;;;;;;8.40;2.30;;;20.40;99.90;;;;;;5064863;28;20188;-75
2022/03/16 13:21:41;;;;;;;10.80;2.47;;;20.30;99.90;;;;;;5057632;28;20194;-76
2022/03/16 13:24:13;;;;;;;12.82;2.33;;;20.40;99.90;;;;;;5056776;28;20677;-75
2022/03/16 13:26:43;;;;;;;9.05;2.50;;;20.40;99.90;;;;;;5055132;28;20200;-75
2022/03/16 13:29:15;;;;;;;8.88;2.22;;;20.30;99.90;;;;;;5057602;28;20182;-74